CheckWX is a tool to help pilots better visualize weather data.  It is not intended as a substitute for an official pre-flight weather briefing.

05:16:51 UTC

CWRX METAR
Rowley Island Airport
Canada
Current

17 mins ago

CWRX 240500Z AUTO 29006KT 10SM //// OVC030 03/02 A2976
Observed
Jul-24 @ 05:00 UTC
Wind
  • 290° at 6 KTS
Visibility
10 SM
Flight Rules
MVFR
Cloud Levels
  • Overcast at 3,000' AGL
Temperature
C / 37°F
Dewpoint
C / 36°F
Humidity
93%
Altimeter
29.76" Hg
Pressure
1007.82 hPa
Previous

1 hour ago

CWRX 240400Z AUTO 29008KT 10SM //// OVC031 03/02 A2977
Observed
Jul-24 @ 04:00 UTC
Wind
  • 290° at 8 KTS
Visibility
10 SM
Flight Rules
VFR
Cloud Levels
  • Overcast at 3,100' AGL
Temperature
C / 37°F
Dewpoint
C / 36°F
Humidity
93%
Altimeter
29.77" Hg
Pressure
1008.12 hPa
Previous

2 hours ago

CWRX 240300Z AUTO 29008KT 10SM //// OVC027 04/02 A2977
Observed
Jul-24 @ 03:00 UTC
Wind
  • 290° at 8 KTS
Visibility
10 SM
Flight Rules
MVFR
Cloud Levels
  • Overcast at 2,700' AGL
Temperature
C / 39°F
Dewpoint
C / 36°F
Humidity
87%
Altimeter
29.77" Hg
Pressure
1008.12 hPa